ROMMA est une association bénévole à but non lucratif. Votre soutien est indispensable : ADHERER à ROMMA ou FAIRE un DON

Granges-lès-Beaumont - (26, Drôme)

Drôme des Collines (155 m)   Longitude: 04°58'E   Latitude: 45°03'N Station partenaire n°123
 

Détail journalier du     <<     >>

Température Precipitation Humidité Pression Vent Dir Rafale Dir. rafale Ensol.
Heure (°C) (mm) (%) (hPa) (km/h) (km/h) (min)
01:00 13.607010146NO10NNO0
02:00 12.307510143ONO10ONO0
03:00 11.507910142---8NNO0
04:00 11.408010142NNO8NNO0
05:00 10.208110143N8NNO0
06:00 10.308310141---3N0
07:00 10.1084101400---0
08:00 11.8082101400---0
09:00 14.807210141---6N0
10:00 19.106010144O10O20
11:00 22.905010146NNO21NNO60
12:00 23.1049101410NNO21N0
13:00 24.3046101314NNO27NNE40
14:00 25.9042101313NNO26N40
15:00 26.3038101212N24NNO30
16:00 26.9039101212NNO24NO60
17:00 24.2045101111NO23NNO30
18:00 23.704810118NNO16NO0
19:00 23.105010116NNO13NNO0
20:00 21.705510116N11NNE0
21:00 19.806510126NNE10N0
22:00 18.406810126NO8NNE0
23:00 16.307510132NO8O0
minuit 15.907710132NNO6O0

Graphique du 24-05-2019

 

Serveur OMMA